FSB1001 SBRF-SBSP
Flight info
| Callsign | FSB1001 |
|---|---|
| Flight time | N/A |
| Altitude | 38000 |
| Route | UDOSA UZ21 VUNOX DCT ENTIT |
| Aircraft | B738/M-SDE2E3FGHIRWXY/LB1 |
Departure
| Time | 2026-04-29 17:44 |
|---|---|
| Airport | Recife/Guararapes - Gilberto Freyre International Airport (SBRF) |
Arrival
| Time | N/A |
|---|---|
| Airport | Congonhas–Deputado Freitas Nobre Airport (SBSP) |
| Time | Latitude | Longitude | Altitude | Speed | Heading |
|---|---|---|---|---|---|
| 2026-04-29 17:27 | -8.13157 | -34.91915 | 37 ft | 0 kts | 73° |
| 2026-04-29 17:33 | -8.13160 | -34.91924 | 37 ft | 4 kts | 71° |
| 2026-04-29 17:33 | -8.13170 | -34.91949 | 36 ft | 4 kts | 58° |
| 2026-04-29 17:33 | -8.13187 | -34.91970 | 35 ft | 4 kts | 35° |
| 2026-04-29 17:33 | -8.13208 | -34.91978 | 37 ft | 2 kts | 343° |
| 2026-04-29 17:34 | -8.13214 | -34.91976 | 37 ft | 0 kts | 341° |
| 2026-04-29 17:37 | -8.13205 | -34.91979 | 37 ft | 3 kts | 341° |
| 2026-04-29 17:37 | -8.13178 | -34.91988 | 35 ft | 6 kts | 341° |
| 2026-04-29 17:37 | -8.13132 | -34.92004 | 37 ft | 8 kts | 341° |
| 2026-04-29 17:38 | -8.13069 | -34.92025 | 37 ft | 11 kts | 341° |
| 2026-04-29 17:38 | -8.12991 | -34.92050 | 37 ft | 13 kts | 341° |
| 2026-04-29 17:38 | -8.12896 | -34.92080 | 37 ft | 15 kts | 343° |
| 2026-04-29 17:38 | -8.12786 | -34.92115 | 36 ft | 18 kts | 342° |
| 2026-04-29 17:39 | -8.12660 | -34.92157 | 35 ft | 20 kts | 342° |
| 2026-04-29 17:39 | -8.12521 | -34.92202 | 34 ft | 21 kts | 342° |
| 2026-04-29 17:39 | -8.12383 | -34.92248 | 32 ft | 21 kts | 342° |
| 2026-04-29 17:39 | -8.12249 | -34.92293 | 34 ft | 20 kts | 342° |
| 2026-04-29 17:40 | -8.12120 | -34.92336 | 33 ft | 19 kts | 341° |
| 2026-04-29 17:40 | -8.11994 | -34.92378 | 32 ft | 19 kts | 341° |
| 2026-04-29 17:40 | -8.11873 | -34.92418 | 32 ft | 18 kts | 341° |
| 2026-04-29 17:40 | -8.11756 | -34.92457 | 30 ft | 17 kts | 342° |
| 2026-04-29 17:41 | -8.11650 | -34.92493 | 31 ft | 13 kts | 337° |
| 2026-04-29 17:41 | -8.11619 | -34.92509 | 30 ft | 0 kts | 329° |
| 2026-04-29 17:42 | -8.11609 | -34.92515 | 31 ft | 3 kts | 329° |
| 2026-04-29 17:42 | -8.11580 | -34.92537 | 31 ft | 7 kts | 322° |
| 2026-04-29 17:43 | -8.11530 | -34.92577 | 31 ft | 11 kts | 321° |
| 2026-04-29 17:43 | -8.11461 | -34.92633 | 31 ft | 14 kts | 311° |
| 2026-04-29 17:43 | -8.11490 | -34.92695 | 31 ft | 13 kts | 169° |
| 2026-04-29 17:43 | -8.11607 | -34.92658 | 31 ft | 31 kts | 161° |
| 2026-04-29 17:44 | -8.12043 | -34.92513 | 32 ft | 99 kts | 162° |
| 2026-04-29 17:44 | -8.12891 | -34.92235 | 38 ft | 155 kts | 162° |
| 2026-04-29 17:44 | -8.14030 | -34.91863 | 349 ft | 179 kts | 165° |
| 2026-04-29 17:44 | -8.15223 | -34.91509 | 1200 ft | 176 kts | 163° |
| 2026-04-29 17:45 | -8.16415 | -34.91134 | 1940 ft | 189 kts | 169° |
| 2026-04-29 17:45 | -8.17778 | -34.91408 | 2138 ft | 221 kts | 212° |
| 2026-04-29 17:45 | -8.18682 | -34.92724 | 2639 ft | 239 kts | 248° |
| 2026-04-29 17:45 | -8.19222 | -34.94396 | 2908 ft | 264 kts | 249° |
| 2026-04-29 17:46 | -8.19795 | -34.96180 | 3552 ft | 272 kts | 249° |
| 2026-04-29 17:46 | -8.20389 | -34.97983 | 4456 ft | 271 kts | 248° |
| 2026-04-29 17:46 | -8.21007 | -34.99800 | 5218 ft | 274 kts | 248° |
| 2026-04-29 17:46 | -8.21642 | -35.01628 | 5685 ft | 275 kts | 247° |
| 2026-04-29 17:47 | -8.22287 | -35.03456 | 5913 ft | 281 kts | 247° |
| 2026-04-29 17:47 | -8.22959 | -35.05339 | 5913 ft | 286 kts | 247° |
| 2026-04-29 17:47 | -8.23630 | -35.07213 | 5907 ft | 282 kts | 248° |
| 2026-04-29 17:47 | -8.24296 | -35.09066 | 5910 ft | 281 kts | 246° |
| 2026-04-29 17:48 | -8.24962 | -35.10916 | 5914 ft | 280 kts | 247° |
| 2026-04-29 17:48 | -8.25629 | -35.12763 | 5921 ft | 280 kts | 246° |
| 2026-04-29 17:48 | -8.26297 | -35.14613 | 5917 ft | 281 kts | 247° |
| 2026-04-29 17:48 | -8.27037 | -35.16402 | 5906 ft | 278 kts | 234° |
| 2026-04-29 17:49 | -8.28201 | -35.17953 | 6271 ft | 278 kts | 227° |
| 2026-04-29 17:49 | -8.29440 | -35.19464 | 7062 ft | 280 kts | 227° |
| 2026-04-29 17:49 | -8.30696 | -35.20992 | 7770 ft | 284 kts | 227° |
| 2026-04-29 17:49 | -8.31966 | -35.22544 | 8481 ft | 289 kts | 228° |
| 2026-04-29 17:50 | -8.33255 | -35.24127 | 9172 ft | 293 kts | 227° |
| 2026-04-29 17:50 | -8.34562 | -35.25741 | 9804 ft | 301 kts | 228° |
| 2026-04-29 17:50 | -8.35903 | -35.27401 | 10256 ft | 313 kts | 227° |
| 2026-04-29 17:50 | -8.37313 | -35.29146 | 10407 ft | 334 kts | 228° |
| 2026-04-29 17:51 | -8.38828 | -35.31026 | 10559 ft | 354 kts | 229° |
| 2026-04-29 17:51 | -8.40415 | -35.33002 | 10849 ft | 367 kts | 229° |
| 2026-04-29 17:51 | -8.42036 | -35.35025 | 11371 ft | 372 kts | 229° |
| 2026-04-29 17:51 | -8.43667 | -35.37063 | 11945 ft | 376 kts | 229° |
| 2026-04-29 17:52 | -8.45320 | -35.39130 | 12507 ft | 380 kts | 229° |
| 2026-04-29 17:52 | -8.46422 | -35.40507 | 12843 ft | 383 kts | 229° |
| 2026-04-29 17:52 | -8.48679 | -35.43327 | 13532 ft | 389 kts | 230° |
| 2026-04-29 17:52 | -8.50391 | -35.45466 | 14017 ft | 393 kts | 230° |
| 2026-04-29 17:53 | -8.52115 | -35.47620 | 14492 ft | 396 kts | 230° |
| 2026-04-29 17:53 | -8.53856 | -35.49796 | 14954 ft | 399 kts | 230° |
| 2026-04-29 17:53 | -8.55610 | -35.51988 | 15387 ft | 404 kts | 230° |
| 2026-04-29 17:53 | -8.57388 | -35.54210 | 15831 ft | 407 kts | 230° |
| 2026-04-29 17:54 | -8.59152 | -35.56415 | 16268 ft | 410 kts | 229° |
| 2026-04-29 17:54 | -8.60957 | -35.58671 | 16706 ft | 414 kts | 229° |
| 2026-04-29 17:54 | -8.62778 | -35.60947 | 17115 ft | 418 kts | 229° |
| 2026-04-29 17:54 | -8.64613 | -35.63243 | 17508 ft | 422 kts | 229° |
| 2026-04-29 17:55 | -8.66465 | -35.65560 | 17930 ft | 425 kts | 229° |
| 2026-04-29 17:55 | -8.68334 | -35.67897 | 18326 ft | 428 kts | 229° |
| 2026-04-29 17:55 | -8.70212 | -35.70247 | 18685 ft | 431 kts | 229° |
| 2026-04-29 17:55 | -8.72102 | -35.72613 | 19061 ft | 433 kts | 229° |
| 2026-04-29 17:56 | -8.73977 | -35.74959 | 19436 ft | 435 kts | 229° |
| 2026-04-29 17:56 | -8.75887 | -35.77351 | 19797 ft | 438 kts | 229° |
| 2026-04-29 17:56 | -8.77808 | -35.79756 | 20141 ft | 441 kts | 229° |
| 2026-04-29 17:56 | -8.79738 | -35.82173 | 20508 ft | 443 kts | 229° |
| 2026-04-29 17:57 | -8.81680 | -35.84606 | 20849 ft | 445 kts | 229° |
| 2026-04-29 17:57 | -8.83630 | -35.87048 | 21187 ft | 448 kts | 229° |
| 2026-04-29 17:57 | -8.85594 | -35.89510 | 21516 ft | 450 kts | 229° |
| 2026-04-29 17:57 | -8.86901 | -35.91147 | 21744 ft | 452 kts | 229° |
| 2026-04-29 17:58 | -8.89520 | -35.94430 | 22182 ft | 454 kts | 229° |
| 2026-04-29 17:58 | -8.91535 | -35.96957 | 22538 ft | 456 kts | 229° |
| 2026-04-29 17:58 | -8.93504 | -35.99427 | 22867 ft | 458 kts | 229° |
| 2026-04-29 17:58 | -8.95513 | -36.01946 | 23166 ft | 460 kts | 229° |
| 2026-04-29 17:59 | -8.97530 | -36.04476 | 23468 ft | 463 kts | 229° |
| 2026-04-29 17:59 | -8.99557 | -36.07020 | 23728 ft | 465 kts | 229° |
| 2026-04-29 17:59 | -9.01587 | -36.09568 | 23996 ft | 466 kts | 229° |
| 2026-04-29 17:59 | -9.03628 | -36.12126 | 24299 ft | 466 kts | 228° |
| 2026-04-29 18:00 | -9.05909 | -36.14380 | 24530 ft | 462 kts | 213° |
| 2026-04-29 18:00 | -9.08553 | -36.16240 | 24841 ft | 462 kts | 211° |
| 2026-04-29 18:00 | -9.11214 | -36.18057 | 25108 ft | 463 kts | 211° |
| 2026-04-29 18:00 | -9.13892 | -36.19885 | 25365 ft | 464 kts | 211° |
| 2026-04-29 18:01 | -9.16573 | -36.21733 | 25589 ft | 466 kts | 212° |
| 2026-04-29 18:01 | -9.19246 | -36.23597 | 25828 ft | 468 kts | 212° |
| 2026-04-29 18:01 | -9.21921 | -36.25478 | 26087 ft | 469 kts | 212° |
| 2026-04-29 18:01 | -9.24603 | -36.27372 | 26341 ft | 470 kts | 212° |
| 2026-04-29 18:02 | -9.27285 | -36.29271 | 26575 ft | 471 kts | 212° |
| 2026-04-29 18:02 | -9.29943 | -36.31154 | 26794 ft | 472 kts | 212° |
| 2026-04-29 18:02 | -9.32662 | -36.33082 | 27021 ft | 474 kts | 212° |
| 2026-04-29 18:02 | -9.35354 | -36.34988 | 27251 ft | 475 kts | 212° |
| 2026-04-29 18:03 | -9.38068 | -36.36911 | 27466 ft | 476 kts | 212° |
| 2026-04-29 18:03 | -9.40788 | -36.38837 | 27682 ft | 477 kts | 212° |
| 2026-04-29 18:03 | -9.43511 | -36.40766 | 27888 ft | 478 kts | 213° |
| 2026-04-29 18:03 | -9.46242 | -36.42701 | 28091 ft | 479 kts | 213° |
| 2026-04-29 18:04 | -9.48979 | -36.44640 | 28291 ft | 481 kts | 213° |
| 2026-04-29 18:04 | -9.51718 | -36.46581 | 28494 ft | 481 kts | 213° |
| 2026-04-29 18:04 | -9.54471 | -36.48533 | 28683 ft | 482 kts | 213° |
| 2026-04-29 18:04 | -9.57219 | -36.50481 | 28859 ft | 484 kts | 213° |
| 2026-04-29 18:05 | -9.59948 | -36.52416 | 29048 ft | 485 kts | 213° |
| 2026-04-29 18:05 | -9.62710 | -36.54375 | 29243 ft | 485 kts | 213° |
| 2026-04-29 18:05 | -9.65473 | -36.56335 | 29521 ft | 484 kts | 213° |
| 2026-04-29 18:05 | -9.68225 | -36.58289 | 29827 ft | 483 kts | 213° |
| 2026-04-29 18:06 | -9.70971 | -36.60245 | 30114 ft | 481 kts | 213° |
| 2026-04-29 18:06 | -9.73696 | -36.62192 | 30388 ft | 479 kts | 213° |
| 2026-04-29 18:06 | -9.76422 | -36.64143 | 30692 ft | 477 kts | 213° |
| 2026-04-29 18:06 | -9.79127 | -36.66079 | 30969 ft | 475 kts | 213° |
| 2026-04-29 18:07 | -9.81829 | -36.68011 | 31221 ft | 474 kts | 213° |